Time;durP1;ratioP1;P1;durP2;ratioP2;P2;SDS_P1;SDS_P2;PMS_P1;PMS_P2;Temp;Humidity;BMP_temperature;BMP_pressure;BME280_temperature;BME280_humidity;BME280_pressure;Samples;Min_cycle;Max_cycle;Signal;HPM_P1;HPM_P2
2021/08/28 00:00:51;;;;;;;7.27;4.37;;;;;;;11.56;100.00;95530.84;5010602;28;20253;-79
2021/08/28 00:03:21;;;;;;;5.13;4.83;;;;;;;11.56;100.00;95536.16;5021272;28;20235;-79
2021/08/28 00:05:50;;;;;;;2.93;2.73;;;;;;;11.57;100.00;95536.97;5012075;28;20538;-80
2021/08/28 00:08:19;;;;;;;3.50;3.30;;;;;;;11.54;100.00;95535.53;5022502;28;20223;-79
2021/08/28 00:10:48;;;;;;;3.20;3.00;;;;;;;11.52;100.00;95531.41;5025907;28;20222;-79
2021/08/28 00:13:16;;;;;;;4.57;3.13;;;;;;;11.52;100.00;95531.41;5014560;28;20303;-79
2021/08/28 00:15:44;;;;;;;2.70;2.47;;;;;;;11.52;100.00;95534.91;5020684;28;20219;-79
2021/08/28 00:18:14;;;;;;;3.30;3.00;;;;;;;11.50;100.00;95526.34;5019926;28;20227;-80
2021/08/28 00:20:42;;;;;;;3.23;3.03;;;;;;;11.51;100.00;95530.59;5009666;28;20231;-80
2021/08/28 00:23:10;;;;;;;2.90;2.70;;;;;;;11.59;100.00;95522.53;5026495;28;20227;-79
2021/08/28 00:25:39;;;;;;;3.87;3.57;;;;;;;11.63;100.00;95525.63;5023293;28;20892;-79
2021/08/28 00:28:07;;;;;;;3.77;3.47;;;;;;;11.69;100.00;95527.47;5010293;28;20234;-79
2021/08/28 00:30:36;;;;;;;3.13;2.93;;;;;;;11.73;99.84;95525.28;5018440;28;20231;-80
2021/08/28 00:33:11;;;;;;;2.97;2.77;;;;;;;11.70;99.50;95521.19;5021483;28;20223;-80
2021/08/28 00:35:42;;;;;;;4.27;3.33;;;;;;;11.61;100.00;95514.41;5004981;28;20286;-79
2021/08/28 00:38:10;;;;;;;3.20;3.00;;;;;;;11.54;100.00;95522.31;5016141;28;20766;-80
2021/08/28 00:40:40;;;;;;;3.77;3.50;;;;;;;11.48;100.00;95523.06;5023999;28;20585;-79
2021/08/28 00:43:10;;;;;;;3.97;3.60;;;;;;;11.37;100.00;95515.69;5021075;28;20226;-80
2021/08/28 00:45:39;;;;;;;2.80;2.60;;;;;;;11.39;100.00;95518.94;5005564;28;20577;-79
2021/08/28 00:48:10;;;;;;;3.80;3.53;;;;;;;11.37;100.00;95511.22;5015402;28;20239;-79
2021/08/28 00:50:41;;;;;;;4.23;3.73;;;;;;;11.36;100.00;95516.69;5005713;28;20228;-79
2021/08/28 00:53:12;;;;;;;4.00;3.17;;;;;;;11.31;100.00;95505.88;5008968;28;20230;-80
2021/08/28 00:55:41;;;;;;;4.90;2.90;;;;;;;11.29;100.00;95513.19;5011294;28;20219;-79
2021/08/28 00:58:10;;;;;;;1.90;1.80;;;;;;;11.32;100.00;95510.16;5023114;28;20661;-80
2021/08/28 01:00:41;;;;;;;2.90;2.70;;;;;;;11.30;100.00;95499.78;5007135;28;20235;-80
2021/08/28 01:03:13;;;;;;;3.27;3.07;;;;;;;11.26;100.00;95510.94;5013193;28;20303;-79
2021/08/28 01:05:53;;;;;;;2.27;2.17;;;;;;;11.26;100.00;95505.66;5003448;28;20386;-79
2021/08/28 01:08:29;;;;;;;3.87;2.77;;;;;;;11.20;100.00;95493.19;5017849;28;20285;-79
2021/08/28 01:11:20;;;;;;;2.53;1.90;;;;;;;11.24;100.00;95491.78;5011536;28;20220;-80
2021/08/28 01:13:58;;;;;;;4.03;2.00;;;;;;;11.25;100.00;95501.38;5004990;28;20238;-79
2021/08/28 01:16:28;;;;;;;3.03;2.83;;;;;;;11.25;100.00;95496.09;5023339;28;20236;-79
2021/08/28 01:18:58;;;;;;;1.93;1.83;;;;;;;11.23;100.00;95498.09;5021898;28;20696;-79
2021/08/28 01:21:33;;;;;;;1.77;1.67;;;;;;;11.25;100.00;95490.81;5006180;28;20223;-79
2021/08/28 01:24:21;;;;;;;1.97;1.87;;;;;;;11.26;100.00;95500.38;5009225;28;20233;-80
2021/08/28 01:27:21;;;;;;;2.00;1.90;;;;;;;11.27;100.00;95502.00;5015949;28;20226;-79
2021/08/28 01:29:53;;;;;;;2.50;2.30;;;;;;;11.31;100.00;95509.31;5010574;28;20247;-80
2021/08/28 01:32:23;;;;;;;2.10;2.00;;;;;;;11.29;100.00;95510.53;5022167;28;20319;-79
2021/08/28 01:34:55;;;;;;;2.10;1.90;;;;;;;11.33;100.00;95506.50;5016813;28;20227;-79
2021/08/28 01:37:23;;;;;;;2.30;2.00;;;;;;;11.36;100.00;95508.78;5014997;28;20243;-79
2021/08/28 01:40:10;;;;;;;2.67;2.43;;;;;;;11.32;100.00;95510.97;5021217;28;20318;-79
2021/08/28 01:42:56;;;;;;;2.57;2.37;;;;;;;11.30;100.00;95512.16;5018112;28;20706;-79
2021/08/28 01:45:27;;;;;;;3.43;3.13;;;;;;;11.28;100.00;95516.84;5012444;28;20230;-80
2021/08/28 01:48:01;;;;;;;3.50;3.17;;;;;;;11.33;100.00;95514.41;5033209;28;20231;-79
2021/08/28 01:50:30;;;;;;;3.57;3.30;;;;;;;11.35;100.00;95512.44;5012251;28;20244;-79
2021/08/28 01:53:26;;;;;;;3.70;3.50;;;;;;;11.41;100.00;95516.91;5020718;28;20246;-79
2021/08/28 01:55:55;;;;;;;3.73;3.47;;;;;;;11.36;100.00;95508.78;5014825;28;20282;-79
2021/08/28 01:58:24;;;;;;;3.57;3.27;;;;;;;11.32;100.00;95518.06;5009407;28;20958;-79
2021/08/28 02:00:53;;;;;;;4.10;3.80;;;;;;;11.32;100.00;95515.44;5004740;28;20306;-79
2021/08/28 02:03:54;;;;;;;3.17;2.97;;;;;;;11.32;100.00;95510.97;4998798;28;20699;-80
2021/08/28 02:06:33;;;;;;;3.20;3.00;;;;;;;11.31;100.00;95511.97;5002385;28;20674;-79
2021/08/28 02:09:05;;;;;;;2.90;2.70;;;;;;;11.33;100.00;95509.13;5018009;28;20234;-80
2021/08/28 02:11:39;;;;;;;3.53;3.33;;;;;;;11.30;100.00;95517.44;5016935;28;20395;-81
2021/08/28 02:14:14;;;;;;;3.93;3.23;;;;;;;11.29;100.00;95513.19;5014099;28;20296;-80
2021/08/28 02:16:46;;;;;;;2.90;2.70;;;;;;;11.31;100.00;95513.81;5001992;28;20516;-80
2021/08/28 02:19:21;;;;;;;3.50;3.30;;;;;;;11.27;100.00;95512.56;5011232;28;20330;-81
2021/08/28 02:22:14;;;;;;;3.80;3.60;;;;;;;11.23;100.00;95508.66;5006633;28;20222;-79
2021/08/28 02:25:05;;;;;;;3.43;3.13;;;;;;;11.22;100.00;95512.31;5017725;28;21572;-80
2021/08/28 02:27:41;;;;;;;3.87;3.57;;;;;;;11.20;100.00;95509.03;5006024;28;20222;-81
2021/08/28 02:30:12;;;;;;;2.70;2.50;;;;;;;11.22;100.00;95509.66;5000478;28;20236;-79
2021/08/28 02:33:12;;;;;;;3.70;3.40;;;;;;;11.21;100.00;95505.41;4986293;28;20231;-79
2021/08/28 02:35:56;;;;;;;3.10;2.90;;;;;;;11.18;100.00;95496.03;5007749;28;20223;-80
2021/08/28 02:38:26;;;;;;;6.37;2.97;;;;;;;11.17;100.00;95493.59;5010278;28;20225;-80
2021/08/28 02:40:57;;;;;;;4.53;3.33;;;;;;;11.17;100.00;95498.88;5000143;28;20309;-80
2021/08/28 02:43:27;;;;;;;3.97;3.77;;;;;;;11.22;100.00;95491.19;4999649;28;20893;-79
2021/08/28 02:46:00;;;;;;;2.97;2.87;;;;;;;11.19;100.00;95491.56;5001130;28;20877;-79
2021/08/28 02:48:35;;;;;;;3.23;3.00;;;;;;;11.19;100.00;95492.38;5013575;28;20226;-80
2021/08/28 02:51:07;;;;;;;3.03;2.83;;;;;;;11.21;100.00;95489.53;5005583;28;20852;-79
2021/08/28 02:53:40;;;;;;;3.20;2.90;;;;;;;11.23;100.00;95487.53;5021594;28;20227;-79
2021/08/28 02:56:09;;;;;;;2.90;2.73;;;;;;;11.22;100.00;95481.44;5017049;28;20253;-79
2021/08/28 02:58:38;;;;;;;4.33;4.03;;;;;;;11.18;100.00;95477.53;5012382;28;20255;-79
2021/08/28 03:01:09;;;;;;;3.33;3.13;;;;;;;11.16;100.00;95482.22;5012373;28;20463;-79
2021/08/28 03:03:42;;;;;;;4.80;4.50;;;;;;;11.18;100.00;95484.66;5019995;28;20527;-79
2021/08/28 03:06:12;;;;;;;3.33;3.03;;;;;;;11.18;100.00;95474.09;5001728;28;20313;-79
2021/08/28 03:08:45;;;;;;;3.60;3.40;;;;;;;11.21;100.00;95478.97;5022346;28;20222;-78
2021/08/28 03:11:14;;;;;;;3.80;3.40;;;;;;;11.19;100.00;95481.00;5021518;28;20305;-79
2021/08/28 03:13:45;;;;;;;2.70;2.47;;;;;;;11.17;100.00;95483.84;5008054;28;20215;-78
2021/08/28 03:16:14;;;;;;;4.50;4.07;;;;;;;11.11;100.00;95482.78;5013585;28;20234;-79
2021/08/28 03:18:47;;;;;;;4.07;3.67;;;;;;;11.14;100.00;95480.75;5018006;28;20350;-79
2021/08/28 03:21:17;;;;;;;3.50;3.20;;;;;;;11.11;100.00;95474.84;5008859;28;20227;-79
2021/08/28 03:23:48;;;;;;;3.43;3.23;;;;;;;11.11;100.00;95485.41;5020296;28;20215;-79
2021/08/28 03:26:23;;;;;;;4.30;4.00;;;;;;;11.11;100.00;95474.03;5020984;28;20323;-79
2021/08/28 03:28:53;;;;;;;3.63;3.33;;;;;;;11.13;100.00;95476.47;5011884;28;20224;-79
2021/08/28 03:31:25;;;;;;;3.60;3.40;;;;;;;11.16;100.00;95476.13;5016971;28;20878;-79
2021/08/28 03:33:58;;;;;;;3.70;3.17;;;;;;;11.17;100.00;95475.09;5019146;28;20542;-79
2021/08/28 03:36:27;;;;;;;3.87;3.27;;;;;;;11.17;100.00;95467.19;5012082;28;20230;-79
2021/08/28 03:38:56;;;;;;;2.93;2.73;;;;;;;11.17;100.00;95472.47;5020611;28;20222;-78
2021/08/28 03:41:26;;;;;;;3.23;3.03;;;;;;;11.15;100.00;95470.00;5019857;28;20714;-79
2021/08/28 03:43:54;;;;;;;4.80;4.27;;;;;;;11.13;100.00;95471.19;5018299;28;20222;-78
2021/08/28 03:46:24;;;;;;;3.60;3.40;;;;;;;11.20;100.00;95472.06;5002531;28;20217;-79
2021/08/28 03:48:53;;;;;;;3.53;3.23;;;;;;;11.22;100.00;95475.31;5011421;28;20303;-78
2021/08/28 03:51:22;;;;;;;4.20;4.00;;;;;;;11.21;100.00;95476.34;5019319;28;20236;-78
2021/08/28 03:53:50;;;;;;;2.97;2.77;;;;;;;11.20;100.00;95478.16;5024703;28;20689;-78
2021/08/28 03:56:19;;;;;;;3.27;3.07;;;;;;;11.13;100.00;95471.19;5019113;28;20230;-79
2021/08/28 03:58:48;;;;;;;3.20;3.00;;;;;;;11.15;100.00;95479.75;5013776;28;20704;-78
2021/08/28 04:01:16;;;;;;;3.60;3.33;;;;;;;11.13;100.00;95473.84;5018328;28;20224;-79
2021/08/28 04:03:46;;;;;;;3.77;3.57;;;;;;;11.15;100.00;95483.19;5003456;28;20223;-79
2021/08/28 04:06:15;;;;;;;3.50;3.27;;;;;;;11.13;100.00;95484.41;5010556;28;20224;-78
2021/08/28 04:08:47;;;;;;;3.57;3.37;;;;;;;11.26;100.00;95481.88;5016996;28;20231;-78
2021/08/28 04:11:16;;;;;;;4.30;4.00;;;;;;;11.27;100.00;95488.78;5017034;28;20657;-78
2021/08/28 04:13:45;;;;;;;8.33;3.33;;;;;;;11.27;100.00;95480.88;5014320;28;20243;-78
2021/08/28 04:16:14;;;;;;;3.53;3.33;;;;;;;11.28;100.00;95482.50;5019301;28;20322;-78
2021/08/28 04:18:53;;;;;;;4.37;4.07;;;;;;;11.27;100.00;95470.31;5021229;28;20261;-77
2021/08/28 04:21:41;;;;;;;3.30;3.10;;;;;;;11.29;100.00;95476.19;4999762;28;20243;-78
2021/08/28 04:24:23;;;;;;;4.03;3.73;;;;;;;11.28;100.00;95470.09;5023177;28;20234;-78
2021/08/28 04:27:27;;;;;;;3.10;2.90;;;;;;;11.27;100.00;95472.94;4986663;28;20223;-79
2021/08/28 04:29:56;;;;;;;4.03;2.93;;;;;;;11.25;100.00;95473.13;5015833;28;20640;-78
2021/08/28 04:32:33;;;;;;;4.07;3.83;;;;;;;11.26;100.00;95472.13;5027467;28;20587;-78
2021/08/28 04:35:02;;;;;;;4.07;3.73;;;;;;;11.21;100.00;95478.97;5014644;28;20244;-78
2021/08/28 04:37:30;;;;;;;4.60;3.43;;;;;;;11.26;100.00;95480.06;5008797;28;20218;-78
2021/08/28 04:40:00;;;;;;;5.00;4.60;;;;;;;11.34;100.00;95479.09;5008925;28;20228;-78
2021/08/28 04:42:28;;;;;;;4.30;3.97;;;;;;;11.31;100.00;95474.16;5018173;28;20245;-78
2021/08/28 04:44:57;;;;;;;3.57;3.33;;;;;;;11.29;100.00;95487.56;5012906;28;20241;-79
2021/08/28 04:47:25;;;;;;;8.10;6.30;;;;;;;11.30;100.00;95483.94;5017107;28;20216;-78
2021/08/28 04:49:54;;;;;;;4.03;3.80;;;;;;;11.25;100.00;95486.34;5012232;28;20238;-77
2021/08/28 04:52:26;;;;;;;4.37;4.07;;;;;;;11.22;100.00;95488.53;5008846;28;20223;-77
2021/08/28 04:54:54;;;;;;;5.53;4.40;;;;;;;11.28;100.00;95485.13;5009269;28;20254;-77
2021/08/28 04:57:25;;;;;;;3.87;3.57;;;;;;;11.26;100.00;95487.16;5009794;28;20688;-77
2021/08/28 04:59:56;;;;;;;3.67;3.47;;;;;;;11.25;100.00;95485.53;5013555;28;20302;-77
2021/08/28 05:02:57;;;;;;;5.30;3.40;;;;;;;11.26;100.00;95482.69;5020513;28;20765;-77
2021/08/28 05:05:25;;;;;;;3.80;3.50;;;;;;;11.25;100.00;95493.44;5007738;28;20274;-75
2021/08/28 05:07:54;;;;;;;3.93;3.70;;;;;;;11.20;100.00;95501.13;5032935;28;20223;-77
2021/08/28 05:10:24;;;;;;;5.10;4.70;;;;;;;11.21;100.00;95497.47;5008494;28;20239;-77
2021/08/28 05:12:54;;;;;;;5.10;3.97;;;;;;;11.22;100.00;95496.47;5003468;28;20281;-77
2021/08/28 05:15:23;;;;;;;3.53;3.33;;;;;;;11.33;100.00;95493.28;5002732;28;20234;-77
2021/08/28 05:17:53;;;;;;;5.17;4.87;;;;;;;11.33;100.00;95488.81;5019380;28;20243;-77
2021/08/28 05:20:25;;;;;;;3.87;3.67;;;;;;;11.31;100.00;95496.13;5009171;28;20704;-77
2021/08/28 05:23:13;;;;;;;4.17;3.97;;;;;;;11.29;100.00;95498.16;5015622;28;20218;-77
2021/08/28 05:25:43;;;;;;;6.13;4.53;;;;;;;11.26;100.00;95500.38;5014223;28;20222;-77
2021/08/28 05:28:14;;;;;;;6.10;5.53;;;;;;;11.23;100.00;95501.53;5014186;28;20223;-78
2021/08/28 05:30:43;;;;;;;4.83;4.60;;;;;;;11.21;100.00;95505.41;5011560;28;20599;-78
2021/08/28 05:33:15;;;;;;;5.63;5.23;;;;;;;11.28;100.00;95506.28;5006633;28;20306;-78
2021/08/28 05:35:44;;;;;;;4.70;4.40;;;;;;;11.28;100.00;95511.56;5010750;28;20212;-78
2021/08/28 05:38:14;;;;;;;5.73;5.17;;;;;;;11.23;100.00;95514.75;5016279;28;20226;-78
2021/08/28 05:40:43;;;;;;;6.30;5.83;;;;;;;11.25;100.00;95511.94;5021916;28;20243;-78
2021/08/28 05:43:11;;;;;;;5.70;5.23;;;;;;;11.28;100.00;95512.38;5007605;28;20250;-78
2021/08/28 05:46:10;;;;;;;5.37;4.93;;;;;;;11.29;100.00;95513.19;5012716;28;20222;-79
2021/08/28 05:48:59;;;;;;;5.30;5.00;;;;;;;11.30;100.00;95509.53;5021955;28;20243;-78
2021/08/28 05:51:49;;;;;;;5.07;4.77;;;;;;;11.30;100.00;95515.63;5023493;28;20230;-79
2021/08/28 05:54:18;;;;;;;4.53;4.33;;;;;;;11.34;100.00;95511.59;5024130;28;20234;-79
2021/08/28 05:56:51;;;;;;;4.27;3.97;;;;;;;11.38;100.00;95514.66;5040224;28;20674;-79
2021/08/28 05:59:20;;;;;;;4.53;4.30;;;;;;;11.41;100.00;95514.28;4998299;28;20336;-79
2021/08/28 06:01:52;;;;;;;4.57;4.17;;;;;;;11.43;100.00;95514.94;4995704;28;20230;-78
2021/08/28 06:04:21;;;;;;;4.00;3.57;;;;;;;11.47;100.00;95508.22;5014789;28;20604;-78
2021/08/28 06:07:19;;;;;;;3.17;2.97;;;;;;;11.55;100.00;95513.38;4968955;28;20225;-78
2021/08/28 06:09:51;;;;;;;3.30;3.10;;;;;;;11.62;100.00;95516.06;5011713;28;20227;-78
2021/08/28 06:12:31;;;;;;;3.97;3.77;;;;;;;11.72;100.00;95515.72;5009307;28;20214;-79
2021/08/28 06:15:18;;;;;;;3.53;3.23;;;;;;;11.82;100.00;95516.22;5012238;28;20229;-79
2021/08/28 06:17:52;;;;;;;4.93;4.60;;;;;;;11.90;100.00;95511.59;5025455;28;20251;-78
2021/08/28 06:20:21;;;;;;;3.17;2.97;;;;;;;11.98;100.00;95513.25;5004950;28;20257;-78
2021/08/28 06:22:49;;;;;;;2.97;2.80;;;;;;;12.05;100.00;95507.97;5018357;28;20230;-78
2021/08/28 06:25:21;;;;;;;3.67;3.43;;;;;;;12.15;100.00;95517.19;5003446;28;20232;-79
2021/08/28 06:27:52;;;;;;;6.00;2.87;;;;;;;12.27;100.00;95516.63;5003838;28;20636;-79
2021/08/28 06:30:23;;;;;;;3.73;3.53;;;;;;;12.12;100.00;95520.22;4999150;28;20318;-79
2021/08/28 06:32:53;;;;;;;4.23;3.87;;;;;;;12.15;100.00;95519.00;5021762;28;20649;-79
2021/08/28 06:35:22;;;;;;;3.70;3.50;;;;;;;12.05;100.00;95516.72;5007139;28;20609;-79
2021/08/28 06:37:50;;;;;;;3.47;3.20;;;;;;;12.09;100.00;95517.16;5002119;28;20652;-79
2021/08/28 06:40:38;;;;;;;3.40;3.20;;;;;;;12.18;100.00;95523.94;5017342;28;20414;-79
2021/08/28 06:43:32;;;;;;;3.10;2.87;;;;;;;12.19;100.00;95515.78;4984873;28;20254;-79
2021/08/28 06:46:20;;;;;;;2.60;2.50;;;;;;;12.22;100.00;95520.69;5016029;28;20287;-78
2021/08/28 06:49:08;;;;;;;2.57;2.40;;;;;;;12.23;100.00;95516.19;5020173;28;20230;-79
2021/08/28 06:51:55;;;;;;;1.77;1.67;;;;;;;12.11;100.00;95512.50;5024640;28;20225;-79
2021/08/28 06:54:42;;;;;;;2.07;1.93;;;;;;;12.22;100.00;95515.38;5023824;28;20222;-82
2021/08/28 06:57:29;;;;;;;3.33;2.93;;;;;;;12.35;100.00;95511.19;5020310;28;20646;-83
2021/08/28 07:00:15;;;;;;;1.60;1.50;;;;;;;12.51;100.00;95514.25;5002080;28;20227;-81
2021/08/28 07:03:04;;;;;;;2.37;2.13;;;;;;;12.77;100.00;95513.50;5005284;28;20231;-82
2021/08/28 07:05:34;;;;;;;1.87;1.77;;;;;;;12.73;100.00;95522.88;4998509;28;20270;-82
2021/08/28 07:08:19;;;;;;;1.53;1.43;;;;;;;12.88;98.78;95520.03;5001129;28;20278;-82
2021/08/28 07:10:47;;;;;;;2.30;2.20;;;;;;;12.84;98.19;95524.13;5002828;28;20306;-83
2021/08/28 07:13:16;;;;;;;3.50;2.73;;;;;;;12.84;99.06;95524.13;5019575;28;20219;-79
2021/08/28 07:15:44;;;;;;;2.53;2.43;;;;;;;12.74;98.71;95519.22;5010281;28;20246;-80
2021/08/28 07:18:14;;;;;;;2.07;1.97;;;;;;;12.84;98.50;95518.00;5008797;28;20224;-79
2021/08/28 07:20:44;;;;;;;2.13;2.03;;;;;;;13.09;97.68;95524.38;5003129;28;20231;-79
2021/08/28 07:23:18;;;;;;;1.77;1.67;;;;;;;13.29;96.91;95517.28;5013649;28;20227;-79
2021/08/28 07:25:53;;;;;;;2.97;1.87;;;;;;;13.35;95.17;95526.25;5038608;28;20292;-80
2021/08/28 07:28:23;;;;;;;1.83;1.50;;;;;;;13.53;95.48;95520.31;5000305;28;20274;-80
2021/08/28 07:31:10;;;;;;;1.67;1.30;;;;;;;13.52;95.02;95526.63;5025282;28;20250;-81
2021/08/28 07:33:45;;;;;;;1.83;1.47;;;;;;;13.41;93.90;95516.66;5023876;28;20227;-80
2021/08/28 07:36:15;;;;;;;2.13;2.03;;;;;;;13.37;94.55;95513.59;4999779;28;20235;-79
2021/08/28 07:38:45;;;;;;;3.23;2.07;;;;;;;13.29;94.40;95511.97;5023313;28;20223;-80
2021/08/28 07:41:15;;;;;;;1.57;1.50;;;;;;;13.37;95.14;95516.25;5022733;28;20218;-80
2021/08/28 07:43:43;;;;;;;1.97;1.87;;;;;;;13.37;94.89;95519.72;5023179;28;20296;-79
2021/08/28 07:46:11;;;;;;;2.40;2.30;;;;;;;13.33;94.55;95513.19;5017178;28;20213;-80
2021/08/28 07:48:47;;;;;;;2.67;2.57;;;;;;;13.44;94.06;95506.47;5007352;28;20211;-80
2021/08/28 07:51:20;;;;;;;2.17;2.07;;;;;;;13.53;93.83;95505.25;4999807;28;21035;-81
2021/08/28 07:53:49;;;;;;;3.03;2.10;;;;;;;13.62;92.78;95506.66;5027610;28;20219;-80
2021/08/28 07:56:18;;;;;;;2.63;2.53;;;;;;;13.66;92.74;95504.41;5030079;28;21641;-81
2021/08/28 07:58:48;;;;;;;3.30;3.10;;;;;;;13.76;91.10;95512.75;5026599;28;20679;-80
2021/08/28 08:01:16;;;;;;;2.27;2.13;;;;;;;13.92;91.25;95501.69;5008725;28;20231;-81
2021/08/28 08:03:46;;;;;;;2.37;2.27;;;;;;;13.93;90.75;95503.31;5028374;28;20227;-80
2021/08/28 08:06:38;;;;;;;2.87;2.47;;;;;;;14.32;89.79;95512.16;5004005;28;20220;-80
2021/08/28 08:09:25;;;;;;;3.30;3.00;;;;;;;14.47;89.51;95512.75;5034152;28;20231;-80
2021/08/28 08:12:11;;;;;;;2.20;2.10;;;;;;;14.74;88.09;95507.31;5030503;28;20231;-80
2021/08/28 08:14:58;;;;;;;2.10;2.00;;;;;;;14.89;87.42;95510.47;5019634;28;20270;-81
2021/08/28 08:17:45;;;;;;;2.00;1.90;;;;;;;15.02;84.72;95512.22;5030865;28;20229;-80
2021/08/28 08:20:39;;;;;;;1.70;1.60;;;;;;;15.21;84.79;95511.28;5023688;28;20521;-80
2021/08/28 08:23:35;;;;;;;1.87;1.77;;;;;;;15.14;85.18;95515.81;5034037;28;20239;-80
2021/08/28 08:26:23;;;;;;;2.20;2.10;;;;;;;15.06;84.76;95519.53;5035153;28;20255;-79
2021/08/28 08:29:24;;;;;;;0.70;0.70;;;;;;;15.14;85.98;95505.19;4982713;28;20308;-81
2021/08/28 08:32:00;;;;;;;1.97;1.37;;;;;;;15.27;85.69;95514.91;5029555;28;20250;-79
2021/08/28 08:34:43;;;;;;;1.20;1.20;;;;;;;15.51;85.66;95508.78;5007270;28;21003;-80
2021/08/28 08:37:11;;;;;;;3.27;1.67;;;;;;;15.86;83.18;95516.25;5030023;28;20221;-81
2021/08/28 08:39:40;;;;;;;0.97;0.97;;;;;;;16.12;81.83;95518.66;5030817;28;20250;-80
2021/08/28 08:42:13;;;;;;;1.30;1.10;;;;;;;16.26;81.73;95516.63;5009533;28;20211;-79
2021/08/28 08:44:41;;;;;;;1.00;1.00;;;;;;;16.23;81.77;95519.75;5011796;28;20216;-79
2021/08/28 08:47:10;;;;;;;1.83;1.73;;;;;;;16.20;81.63;95517.53;5023921;28;20219;-80
2021/08/28 08:49:39;;;;;;;1.93;1.47;;;;;;;16.07;81.50;95523.81;4999820;28;20240;-79
2021/08/28 08:52:09;;;;;;;0.67;0.60;;;;;;;15.87;82.38;95520.53;5019036;28;20224;-79
2021/08/28 08:54:59;;;;;;;1.20;1.20;;;;;;;15.66;82.30;95523.63;5020719;28;20243;-80
2021/08/28 08:57:27;;;;;;;2.50;2.30;;;;;;;15.45;83.88;95530.91;5003668;28;20224;-80
2021/08/28 08:59:56;;;;;;;1.90;1.80;;;;;;;15.29;84.52;95532.28;4999367;28;20223;-82
2021/08/28 09:02:25;;;;;;;1.97;1.77;;;;;;;14.75;85.03;95532.84;5009170;28;20224;-84
2021/08/28 09:05:12;;;;;;;1.80;1.70;;;;;;;14.31;87.88;95534.41;5014600;28;20303;-84
2021/08/28 09:07:40;;;;;;;1.10;1.10;;;;;;;14.20;88.09;95529.78;4998610;28;20239;-83
2021/08/28 09:10:12;;;;;;;1.63;1.53;;;;;;;14.32;88.30;95538.69;5009570;28;20231;-82
2021/08/28 09:12:41;;;;;;;1.93;1.83;;;;;;;14.57;88.91;95535.38;4995321;28;20235;-82
2021/08/28 09:15:14;;;;;;;1.67;1.57;;;;;;;14.68;88.21;95537.34;5020040;28;20592;-82
2021/08/28 09:17:44;;;;;;;1.83;1.73;;;;;;;14.50;87.24;95533.56;5014341;28;20212;-82
2021/08/28 09:20:22;;;;;;;3.20;2.80;;;;;;;14.55;87.15;95538.25;5002357;28;20231;-81
2021/08/28 09:22:51;;;;;;;1.60;1.50;;;;;;;14.68;87.50;95530.22;5017850;28;20758;-81
2021/08/28 09:25:25;;;;;;;1.50;1.40;;;;;;;14.88;88.10;95532.75;5022204;28;22611;-81
2021/08/28 09:27:53;;;;;;;0.97;0.97;;;;;;;15.03;85.96;95535.94;5009381;28;20219;-81
2021/08/28 09:30:23;;;;;;;0.90;0.70;;;;;;;15.18;83.06;95530.31;5007482;28;20829;-81
2021/08/28 09:32:54;;;;;;;1.27;1.27;;;;;;;15.55;82.70;95528.59;5020861;28;20639;-82
2021/08/28 09:35:25;;;;;;;0.90;0.90;;;;;;;15.66;81.47;95518.31;4992599;28;20975;-81
2021/08/28 09:37:55;;;;;;;1.40;1.40;;;;;;;15.82;81.42;95528.38;5015364;28;20251;-82
2021/08/28 09:40:28;;;;;;;0.90;0.60;;;;;;;16.12;80.77;95529.31;4995307;28;20662;-81
2021/08/28 09:42:58;;;;;;;1.20;1.10;;;;;;;16.48;81.53;95533.00;4992076;28;20274;-81
2021/08/28 09:45:27;;;;;;;1.03;0.80;;;;;;;16.69;79.72;95535.19;5001360;28;21158;-81
2021/08/28 09:47:57;;;;;;;1.10;1.10;;;;;;;16.76;78.25;95535.94;5020316;28;20215;-82
2021/08/28 09:50:31;;;;;;;0.97;0.97;;;;;;;16.61;78.22;95538.13;4992726;28;20236;-81
2021/08/28 09:53:07;;;;;;;1.63;1.53;;;;;;;16.35;80.49;95539.28;5019405;28;20227;-82
2021/08/28 09:55:40;;;;;;;1.97;0.83;;;;;;;16.15;79.32;95536.84;4991105;28;20220;-82
2021/08/28 09:58:11;;;;;;;1.13;1.13;;;;;;;15.97;78.67;95533.34;5000767;28;20208;-82
2021/08/28 10:00:43;;;;;;;1.37;1.27;;;;;;;16.16;77.93;95525.16;5008062;28;20239;-81
2021/08/28 10:03:13;;;;;;;1.33;1.23;;;;;;;16.47;76.33;95531.38;5012962;28;20750;-81
2021/08/28 10:05:45;;;;;;;1.13;1.03;;;;;;;16.80;76.60;95527.47;4993806;28;20220;-81
2021/08/28 10:08:16;;;;;;;1.40;1.30;;;;;;;17.04;76.01;95527.34;5010206;28;20219;-82
2021/08/28 10:10:46;;;;;;;1.10;1.10;;;;;;;17.02;75.61;95528.63;5012948;28;20266;-81
2021/08/28 10:13:33;;;;;;;0.70;0.70;;;;;;;17.13;75.29;95529.69;5005455;28;20293;-81
2021/08/28 10:16:02;;;;;;;0.70;0.70;;;;;;;17.16;74.91;95524.72;4996133;28;20223;-81
2021/08/28 10:18:33;;;;;;;1.00;0.97;;;;;;;17.18;76.69;95522.63;4996237;28;20224;-81
2021/08/28 10:21:03;;;;;;;0.60;0.60;;;;;;;17.38;76.92;95527.66;5006897;28;20592;-81
2021/08/28 10:23:36;;;;;;;0.80;0.80;;;;;;;17.44;73.35;95510.72;5007519;28;20223;-81
2021/08/28 10:26:10;;;;;;;0.80;0.80;;;;;;;17.03;74.08;95519.59;5000056;28;20519;-81
2021/08/28 10:28:39;;;;;;;0.93;0.93;;;;;;;17.05;73.89;95518.31;4992268;28;20215;-80
2021/08/28 10:31:10;;;;;;;2.37;1.20;;;;;;;17.37;75.39;95519.88;5007982;28;20685;-83
2021/08/28 10:33:40;;;;;;;1.47;1.37;;;;;;;17.56;74.44;95519.56;5006793;28;20235;-81
2021/08/28 10:36:10;;;;;;;1.37;0.73;;;;;;;18.04;73.25;95509.75;5010065;28;20216;-81
2021/08/28 10:38:42;;;;;;;0.90;0.73;;;;;;;17.69;70.56;95523.88;5004841;28;20220;-82
2021/08/28 10:41:13;;;;;;;2.30;0.60;;;;;;;17.70;71.29;95514.84;4990946;28;20220;-81
2021/08/28 10:43:45;;;;;;;0.60;0.60;;;;;;;17.43;72.93;95517.09;4988246;28;20665;-82
2021/08/28 10:46:23;;;;;;;0.93;0.93;;;;;;;16.28;75.42;95525.25;4989419;28;20685;-82
2021/08/28 10:49:04;;;;;;;1.17;0.40;;;;;;;15.86;78.30;95532.22;5005288;28;20305;-83
2021/08/28 10:51:37;;;;;;;0.50;0.50;;;;;;;15.70;79.60;95536.25;5007453;28;20228;-80
2021/08/28 10:54:08;;;;;;;0.87;0.87;;;;;;;15.55;81.70;95533.91;5017708;28;20223;-81
2021/08/28 10:56:43;;;;;;;1.03;0.80;;;;;;;15.34;81.56;95548.38;5010668;28;20403;-82
2021/08/28 10:59:22;;;;;;;0.50;0.50;;;;;;;15.32;81.71;95536.34;5013926;28;20310;-81
2021/08/28 11:02:00;;;;;;;0.57;0.57;;;;;;;15.45;81.12;95535.41;5013758;28;20223;-80
2021/08/28 11:04:33;;;;;;;0.97;0.57;;;;;;;15.51;82.40;95539.88;5011683;28;20478;-80
2021/08/28 11:07:22;;;;;;;0.70;0.70;;;;;;;15.36;82.63;95532.22;5001308;28;20222;-80
2021/08/28 11:10:05;;;;;;;0.70;0.70;;;;;;;15.49;81.56;95545.41;5006837;28;20233;-80
2021/08/28 11:12:50;;;;;;;0.77;0.77;;;;;;;15.43;82.21;95535.63;4998901;28;20855;-79
2021/08/28 11:15:48;;;;;;;0.63;0.63;;;;;;;15.27;84.49;95539.66;5008022;28;20227;-80
2021/08/28 11:18:41;;;;;;;0.70;0.70;;;;;;;15.29;85.52;95534.13;4936126;28;20230;-79
2021/08/28 11:21:12;;;;;;;0.60;0.60;;;;;;;14.96;84.62;95534.34;5000603;28;20232;-80
2021/08/28 11:23:43;;;;;;;0.47;0.40;;;;;;;15.00;85.49;95539.03;5011109;28;20226;-80
2021/08/28 11:26:12;;;;;;;1.50;1.40;;;;;;;14.95;85.84;95538.84;4994294;28;20219;-81
2021/08/28 11:28:43;;;;;;;0.70;0.70;;;;;;;14.90;83.85;95535.19;5014462;28;20683;-80
2021/08/28 11:31:11;;;;;;;0.90;0.90;;;;;;;14.84;84.31;95542.19;5019194;28;20720;-80
2021/08/28 11:33:39;;;;;;;0.37;0.30;;;;;;;14.81;83.00;95542.59;4998807;28;20285;-80
2021/08/28 11:36:18;;;;;;;0.20;0.20;;;;;;;14.92;80.84;95535.81;5003145;28;20231;-80
2021/08/28 11:38:50;;;;;;;0.50;0.50;;;;;;;14.72;83.67;95551.84;5014859;28;20313;-79
2021/08/28 11:41:21;;;;;;;0.50;0.50;;;;;;;14.33;82.45;95540.34;5006045;28;20635;-80
2021/08/28 11:43:50;;;;;;;1.23;0.27;;;;;;;14.59;82.41;95538.63;5015215;28;20285;-80
2021/08/28 11:46:23;;;;;;;0.30;0.30;;;;;;;14.74;84.11;95541.84;5007303;28;20239;-80
2021/08/28 11:48:51;;;;;;;0.47;0.40;;;;;;;14.86;85.00;95545.44;5003876;28;20237;-80
2021/08/28 11:51:25;;;;;;;0.57;0.37;;;;;;;14.95;85.15;95541.50;4992802;28;20224;-80
2021/08/28 11:53:57;;;;;;;0.57;0.57;;;;;;;15.03;85.68;95538.59;5018633;28;20228;-80
2021/08/28 11:56:27;;;;;;;0.47;0.47;;;;;;;15.14;85.24;95542.41;5001183;28;20228;-80
2021/08/28 11:58:58;;;;;;;0.30;0.30;;;;;;;15.17;85.25;95549.94;5016251;28;20231;-80
2021/08/28 12:01:33;;;;;;;0.60;0.50;;;;;;;15.21;85.39;95542.38;5010304;28;20212;-81